sensor_id;sensor_type;location;lat;lon;timestamp;P1;durP1;ratioP1;P2;durP2;ratioP2
53714;SDS011;39608;55.630;37.864;2022-08-19T00:03:05;7.75;;;2.90;;
53714;SDS011;39608;55.630;37.864;2022-08-19T00:08:08;6.25;;;3.15;;
53714;SDS011;39608;55.630;37.864;2022-08-19T00:13:11;11.70;;;2.78;;
53714;SDS011;39608;55.630;37.864;2022-08-19T00:18:14;8.77;;;2.80;;
53714;SDS011;39608;55.630;37.864;2022-08-19T00:23:17;8.00;;;2.90;;
53714;SDS011;39608;55.630;37.864;2022-08-19T00:28:20;7.57;;;2.92;;
53714;SDS011;39608;55.630;37.864;2022-08-19T00:33:22;3.17;;;2.17;;
53714;SDS011;39608;55.630;37.864;2022-08-19T00:38:25;5.40;;;2.45;;
53714;SDS011;39608;55.630;37.864;2022-08-19T00:43:29;7.18;;;2.58;;
53714;SDS011;39608;55.630;37.864;2022-08-19T00:48:31;8.85;;;2.00;;
53714;SDS011;39608;55.630;37.864;2022-08-19T00:53:35;8.05;;;2.65;;
53714;SDS011;39608;55.630;37.864;2022-08-19T00:58:39;4.70;;;2.22;;
53714;SDS011;39608;55.630;37.864;2022-08-19T01:03:41;5.45;;;2.40;;
53714;SDS011;39608;55.630;37.864;2022-08-19T01:08:43;5.15;;;2.80;;
53714;SDS011;39608;55.630;37.864;2022-08-19T01:13:47;2.83;;;2.33;;
53714;SDS011;39608;55.630;37.864;2022-08-19T01:18:51;5.07;;;2.10;;
53714;SDS011;39608;55.630;37.864;2022-08-19T01:24:00;8.55;;;2.42;;
53714;SDS011;39608;55.630;37.864;2022-08-19T01:29:02;6.18;;;2.30;;
53714;SDS011;39608;55.630;37.864;2022-08-19T01:34:04;6.95;;;2.20;;
53714;SDS011;39608;55.630;37.864;2022-08-19T01:39:10;3.72;;;2.28;;
53714;SDS011;39608;55.630;37.864;2022-08-19T01:44:14;4.78;;;2.30;;
53714;SDS011;39608;55.630;37.864;2022-08-19T01:49:21;3.03;;;2.20;;
53714;SDS011;39608;55.630;37.864;2022-08-19T01:54:28;6.43;;;2.47;;
53714;SDS011;39608;55.630;37.864;2022-08-19T01:59:30;4.70;;;2.72;;
53714;SDS011;39608;55.630;37.864;2022-08-19T02:04:36;7.03;;;3.13;;
53714;SDS011;39608;55.630;37.864;2022-08-19T02:09:42;7.53;;;3.00;;
53714;SDS011;39608;55.630;37.864;2022-08-19T02:14:44;8.15;;;3.08;;
53714;SDS011;39608;55.630;37.864;2022-08-19T02:19:46;6.18;;;2.92;;
53714;SDS011;39608;55.630;37.864;2022-08-19T02:24:50;5.00;;;3.08;;
53714;SDS011;39608;55.630;37.864;2022-08-19T02:29:52;11.98;;;3.17;;
53714;SDS011;39608;55.630;37.864;2022-08-19T02:34:55;8.75;;;3.30;;
53714;SDS011;39608;55.630;37.864;2022-08-19T02:39:58;6.07;;;2.97;;
53714;SDS011;39608;55.630;37.864;2022-08-19T02:45:01;6.45;;;3.47;;
53714;SDS011;39608;55.630;37.864;2022-08-19T02:50:05;11.52;;;3.47;;
53714;SDS011;39608;55.630;37.864;2022-08-19T02:55:09;11.05;;;3.58;;
53714;SDS011;39608;55.630;37.864;2022-08-19T03:00:12;9.18;;;3.33;;
53714;SDS011;39608;55.630;37.864;2022-08-19T03:05:14;6.65;;;3.38;;
53714;SDS011;39608;55.630;37.864;2022-08-19T03:10:18;9.90;;;4.30;;
53714;SDS011;39608;55.630;37.864;2022-08-19T03:15:21;10.40;;;3.47;;
53714;SDS011;39608;55.630;37.864;2022-08-19T03:20:23;6.60;;;3.85;;
53714;SDS011;39608;55.630;37.864;2022-08-19T03:25:27;12.63;;;3.53;;
53714;SDS011;39608;55.630;37.864;2022-08-19T03:30:29;12.15;;;3.75;;
53714;SDS011;39608;55.630;37.864;2022-08-19T03:35:31;7.82;;;4.20;;
53714;SDS011;39608;55.630;37.864;2022-08-19T03:40:38;15.45;;;4.38;;
53714;SDS011;39608;55.630;37.864;2022-08-19T03:45:40;7.63;;;3.75;;
53714;SDS011;39608;55.630;37.864;2022-08-19T03:50:42;7.13;;;3.80;;
53714;SDS011;39608;55.630;37.864;2022-08-19T03:55:46;14.00;;;3.90;;
53714;SDS011;39608;55.630;37.864;2022-08-19T04:00:48;5.50;;;3.45;;
53714;SDS011;39608;55.630;37.864;2022-08-19T04:05:51;7.38;;;3.63;;
53714;SDS011;39608;55.630;37.864;2022-08-19T04:10:55;15.65;;;3.55;;
53714;SDS011;39608;55.630;37.864;2022-08-19T04:15:57;10.90;;;3.47;;
53714;SDS011;39608;55.630;37.864;2022-08-19T04:20:59;11.27;;;3.67;;
53714;SDS011;39608;55.630;37.864;2022-08-19T04:26:03;10.13;;;3.60;;
53714;SDS011;39608;55.630;37.864;2022-08-19T04:31:05;10.00;;;3.55;;
53714;SDS011;39608;55.630;37.864;2022-08-19T04:36:08;10.15;;;3.22;;
53714;SDS011;39608;55.630;37.864;2022-08-19T04:41:18;15.55;;;3.53;;
53714;SDS011;39608;55.630;37.864;2022-08-19T04:46:39;8.98;;;3.50;;
53714;SDS011;39608;55.630;37.864;2022-08-19T04:51:46;8.43;;;3.60;;
53714;SDS011;39608;55.630;37.864;2022-08-19T04:56:50;9.35;;;3.20;;
53714;SDS011;39608;55.630;37.864;2022-08-19T05:01:53;6.13;;;2.65;;
53714;SDS011;39608;55.630;37.864;2022-08-19T05:06:55;6.75;;;3.20;;
53714;SDS011;39608;55.630;37.864;2022-08-19T05:12:00;11.55;;;3.80;;
53714;SDS011;39608;55.630;37.864;2022-08-19T05:17:02;8.13;;;3.40;;
53714;SDS011;39608;55.630;37.864;2022-08-19T05:22:04;8.00;;;3.78;;
53714;SDS011;39608;55.630;37.864;2022-08-19T05:27:26;8.77;;;3.63;;
53714;SDS011;39608;55.630;37.864;2022-08-19T05:32:28;5.18;;;3.40;;
53714;SDS011;39608;55.630;37.864;2022-08-19T05:37:30;6.22;;;3.33;;
53714;SDS011;39608;55.630;37.864;2022-08-19T05:42:34;9.50;;;3.30;;
53714;SDS011;39608;55.630;37.864;2022-08-19T05:47:36;9.77;;;3.67;;
53714;SDS011;39608;55.630;37.864;2022-08-19T05:52:38;5.68;;;2.70;;
53714;SDS011;39608;55.630;37.864;2022-08-19T05:57:42;9.00;;;3.10;;
53714;SDS011;39608;55.630;37.864;2022-08-19T06:02:44;7.95;;;3.17;;
53714;SDS011;39608;55.630;37.864;2022-08-19T06:07:46;9.32;;;2.90;;
53714;SDS011;39608;55.630;37.864;2022-08-19T06:12:50;7.20;;;2.70;;
53714;SDS011;39608;55.630;37.864;2022-08-19T06:17:52;7.60;;;2.92;;
53714;SDS011;39608;55.630;37.864;2022-08-19T06:22:54;6.03;;;3.05;;
53714;SDS011;39608;55.630;37.864;2022-08-19T06:27:58;10.45;;;3.13;;
53714;SDS011;39608;55.630;37.864;2022-08-19T06:33:00;7.28;;;3.13;;
53714;SDS011;39608;55.630;37.864;2022-08-19T06:38:02;4.97;;;2.97;;
53714;SDS011;39608;55.630;37.864;2022-08-19T06:43:06;8.25;;;3.47;;
53714;SDS011;39608;55.630;37.864;2022-08-19T06:48:08;7.05;;;3.33;;
53714;SDS011;39608;55.630;37.864;2022-08-19T06:53:10;6.57;;;3.58;;
53714;SDS011;39608;55.630;37.864;2022-08-19T06:58:14;8.00;;;3.67;;
53714;SDS011;39608;55.630;37.864;2022-08-19T07:03:17;7.72;;;3.53;;
53714;SDS011;39608;55.630;37.864;2022-08-19T07:08:19;4.13;;;3.10;;
53714;SDS011;39608;55.630;37.864;2022-08-19T07:13:22;3.78;;;2.58;;
53714;SDS011;39608;55.630;37.864;2022-08-19T07:18:24;5.75;;;2.22;;
53714;SDS011;39608;55.630;37.864;2022-08-19T07:23:26;5.68;;;2.55;;
53714;SDS011;39608;55.630;37.864;2022-08-19T07:28:30;6.60;;;2.60;;
53714;SDS011;39608;55.630;37.864;2022-08-19T07:33:32;7.68;;;2.03;;
53714;SDS011;39608;55.630;37.864;2022-08-19T07:38:37;9.25;;;2.53;;
53714;SDS011;39608;55.630;37.864;2022-08-19T07:43:42;7.30;;;2.30;;
53714;SDS011;39608;55.630;37.864;2022-08-19T07:48:46;3.80;;;2.38;;
53714;SDS011;39608;55.630;37.864;2022-08-19T07:53:50;3.80;;;2.25;;
53714;SDS011;39608;55.630;37.864;2022-08-19T07:58:54;3.47;;;2.20;;
53714;SDS011;39608;55.630;37.864;2022-08-19T08:03:56;3.33;;;2.00;;
53714;SDS011;39608;55.630;37.864;2022-08-19T08:09:17;3.05;;;1.90;;
53714;SDS011;39608;55.630;37.864;2022-08-19T08:14:25;7.50;;;2.05;;
53714;SDS011;39608;55.630;37.864;2022-08-19T08:19:29;6.32;;;1.98;;
53714;SDS011;39608;55.630;37.864;2022-08-19T08:24:32;9.07;;;1.90;;
53714;SDS011;39608;55.630;37.864;2022-08-19T08:29:37;4.70;;;1.70;;
53714;SDS011;39608;55.630;37.864;2022-08-19T08:34:43;3.83;;;2.15;;
53714;SDS011;39608;55.630;37.864;2022-08-19T08:39:45;17.63;;;2.17;;
53714;SDS011;39608;55.630;37.864;2022-08-19T08:44:49;12.02;;;1.70;;
53714;SDS011;39608;55.630;37.864;2022-08-19T08:49:59;4.63;;;1.98;;
53714;SDS011;39608;55.630;37.864;2022-08-19T08:55:04;8.90;;;1.90;;
53714;SDS011;39608;55.630;37.864;2022-08-19T09:00:12;4.55;;;1.85;;
53714;SDS011;39608;55.630;37.864;2022-08-19T09:05:20;4.07;;;2.15;;
53714;SDS011;39608;55.630;37.864;2022-08-19T09:10:26;3.15;;;1.77;;
53714;SDS011;39608;55.630;37.864;2022-08-19T09:15:36;6.82;;;2.20;;
53714;SDS011;39608;55.630;37.864;2022-08-19T09:20:45;12.27;;;2.00;;
53714;SDS011;39608;55.630;37.864;2022-08-19T09:25:48;7.45;;;1.80;;
53714;SDS011;39608;55.630;37.864;2022-08-19T09:30:52;6.10;;;1.70;;
53714;SDS011;39608;55.630;37.864;2022-08-19T09:36:01;4.43;;;2.28;;
53714;SDS011;39608;55.630;37.864;2022-08-19T09:41:07;2.78;;;1.60;;
53714;SDS011;39608;55.630;37.864;2022-08-19T09:46:15;1.85;;;1.60;;
53714;SDS011;39608;55.630;37.864;2022-08-19T09:51:19;2.88;;;1.58;;
53714;SDS011;39608;55.630;37.864;2022-08-19T09:56:24;7.43;;;1.63;;
53714;SDS011;39608;55.630;37.864;2022-08-19T10:01:28;2.33;;;1.55;;
53714;SDS011;39608;55.630;37.864;2022-08-19T10:06:31;5.47;;;1.38;;
53714;SDS011;39608;55.630;37.864;2022-08-19T10:11:34;6.97;;;1.67;;
53714;SDS011;39608;55.630;37.864;2022-08-19T10:16:38;1.50;;;1.40;;
53714;SDS011;39608;55.630;37.864;2022-08-19T10:21:41;6.47;;;1.52;;
53714;SDS011;39608;55.630;37.864;2022-08-19T10:26:43;2.00;;;1.58;;
53714;SDS011;39608;55.630;37.864;2022-08-19T10:31:49;4.15;;;1.63;;
53714;SDS011;39608;55.630;37.864;2022-08-19T10:36:52;9.25;;;2.30;;
53714;SDS011;39608;55.630;37.864;2022-08-19T10:41:54;1.50;;;1.20;;
53714;SDS011;39608;55.630;37.864;2022-08-19T10:46:58;6.13;;;1.63;;
53714;SDS011;39608;55.630;37.864;2022-08-19T10:52:01;2.35;;;1.35;;
53714;SDS011;39608;55.630;37.864;2022-08-19T10:57:22;7.85;;;2.10;;
53714;SDS011;39608;55.630;37.864;2022-08-19T11:02:30;5.13;;;1.98;;
53714;SDS011;39608;55.630;37.864;2022-08-19T11:07:33;4.10;;;1.67;;
53714;SDS011;39608;55.630;37.864;2022-08-19T11:12:36;6.43;;;2.15;;
53714;SDS011;39608;55.630;37.864;2022-08-19T11:17:43;2.67;;;1.70;;
53714;SDS011;39608;55.630;37.864;2022-08-19T11:27:47;4.95;;;1.65;;
53714;SDS011;39608;55.630;37.864;2022-08-19T11:32:52;10.52;;;2.10;;
53714;SDS011;39608;55.630;37.864;2022-08-19T11:37:54;2.83;;;1.60;;
53714;SDS011;39608;55.630;37.864;2022-08-19T11:43:00;8.02;;;2.08;;
53714;SDS011;39608;55.630;37.864;2022-08-19T11:48:04;5.00;;;1.80;;
53714;SDS011;39608;55.630;37.864;2022-08-19T11:53:06;3.58;;;2.00;;
53714;SDS011;39608;55.630;37.864;2022-08-19T11:58:08;3.03;;;1.80;;
53714;SDS011;39608;55.630;37.864;2022-08-19T12:03:12;7.93;;;1.80;;
53714;SDS011;39608;55.630;37.864;2022-08-19T12:08:15;6.87;;;1.70;;
53714;SDS011;39608;55.630;37.864;2022-08-19T12:13:17;7.00;;;1.80;;
53714;SDS011;39608;55.630;37.864;2022-08-19T12:18:21;2.53;;;1.80;;
53714;SDS011;39608;55.630;37.864;2022-08-19T12:23:24;19.90;;;1.73;;
53714;SDS011;39608;55.630;37.864;2022-08-19T12:28:27;5.80;;;2.05;;
53714;SDS011;39608;55.630;37.864;2022-08-19T12:33:31;11.70;;;2.20;;
53714;SDS011;39608;55.630;37.864;2022-08-19T12:38:33;3.10;;;1.98;;
53714;SDS011;39608;55.630;37.864;2022-08-19T12:43:36;5.57;;;2.20;;
53714;SDS011;39608;55.630;37.864;2022-08-19T12:48:40;2.25;;;1.70;;
53714;SDS011;39608;55.630;37.864;2022-08-19T12:53:46;6.93;;;1.80;;
53714;SDS011;39608;55.630;37.864;2022-08-19T12:58:49;8.45;;;1.80;;
53714;SDS011;39608;55.630;37.864;2022-08-19T13:03:53;6.25;;;1.85;;
53714;SDS011;39608;55.630;37.864;2022-08-19T13:08:55;8.68;;;1.98;;
53714;SDS011;39608;55.630;37.864;2022-08-19T13:13:58;7.13;;;2.22;;
53714;SDS011;39608;55.630;37.864;2022-08-19T13:19:02;5.45;;;2.22;;
53714;SDS011;39608;55.630;37.864;2022-08-19T13:24:06;27.85;;;3.40;;
53714;SDS011;39608;55.630;37.864;2022-08-19T13:29:08;10.43;;;2.80;;
53714;SDS011;39608;55.630;37.864;2022-08-19T13:34:30;9.38;;;3.28;;
53714;SDS011;39608;55.630;37.864;2022-08-19T13:39:35;9.35;;;4.90;;
53714;SDS011;39608;55.630;37.864;2022-08-19T13:44:37;8.27;;;3.22;;
53714;SDS011;39608;55.630;37.864;2022-08-19T13:49:40;8.32;;;3.00;;
53714;SDS011;39608;55.630;37.864;2022-08-19T13:54:43;6.57;;;2.90;;
53714;SDS011;39608;55.630;37.864;2022-08-19T13:59:45;6.07;;;3.00;;
53714;SDS011;39608;55.630;37.864;2022-08-19T14:04:48;9.05;;;3.30;;
53714;SDS011;39608;55.630;37.864;2022-08-19T14:09:53;6.95;;;4.63;;
53714;SDS011;39608;55.630;37.864;2022-08-19T14:14:55;11.73;;;5.57;;
53714;SDS011;39608;55.630;37.864;2022-08-19T14:19:59;16.65;;;5.72;;
53714;SDS011;39608;55.630;37.864;2022-08-19T14:25:08;13.05;;;8.50;;
53714;SDS011;39608;55.630;37.864;2022-08-19T14:30:14;12.40;;;7.68;;
53714;SDS011;39608;55.630;37.864;2022-08-19T14:35:20;9.80;;;6.83;;
53714;SDS011;39608;55.630;37.864;2022-08-19T14:40:25;15.93;;;6.63;;
53714;SDS011;39608;55.630;37.864;2022-08-19T14:45:30;8.57;;;5.38;;
53714;SDS011;39608;55.630;37.864;2022-08-19T14:50:36;8.47;;;4.50;;
53714;SDS011;39608;55.630;37.864;2022-08-19T14:55:41;8.32;;;4.13;;
53714;SDS011;39608;55.630;37.864;2022-08-19T15:00:44;8.37;;;3.63;;
53714;SDS011;39608;55.630;37.864;2022-08-19T15:05:49;11.13;;;3.20;;
53714;SDS011;39608;55.630;37.864;2022-08-19T15:10:51;5.03;;;3.10;;
53714;SDS011;39608;55.630;37.864;2022-08-19T15:15:54;4.93;;;2.30;;
53714;SDS011;39608;55.630;37.864;2022-08-19T15:20:59;9.10;;;2.95;;
53714;SDS011;39608;55.630;37.864;2022-08-19T15:26:02;7.82;;;2.47;;
53714;SDS011;39608;55.630;37.864;2022-08-19T15:31:06;3.75;;;2.65;;
53714;SDS011;39608;55.630;37.864;2022-08-19T15:36:10;11.05;;;2.55;;
53714;SDS011;39608;55.630;37.864;2022-08-19T15:41:15;3.42;;;1.95;;
53714;SDS011;39608;55.630;37.864;2022-08-19T15:46:26;6.40;;;2.00;;
53714;SDS011;39608;55.630;37.864;2022-08-19T15:51:32;6.35;;;1.90;;
53714;SDS011;39608;55.630;37.864;2022-08-19T15:56:35;7.43;;;2.10;;
53714;SDS011;39608;55.630;37.864;2022-08-19T16:02:01;8.13;;;2.25;;
53714;SDS011;39608;55.630;37.864;2022-08-19T16:07:22;5.68;;;2.20;;
53714;SDS011;39608;55.630;37.864;2022-08-19T16:12:24;4.18;;;2.10;;
53714;SDS011;39608;55.630;37.864;2022-08-19T16:17:29;4.93;;;1.75;;
53714;SDS011;39608;55.630;37.864;2022-08-19T16:22:33;6.07;;;2.30;;
53714;SDS011;39608;55.630;37.864;2022-08-19T16:27:36;5.88;;;2.42;;
53714;SDS011;39608;55.630;37.864;2022-08-19T16:32:41;4.38;;;2.45;;
53714;SDS011;39608;55.630;37.864;2022-08-19T16:37:45;11.10;;;2.60;;
53714;SDS011;39608;55.630;37.864;2022-08-19T16:42:48;2.67;;;2.05;;
53714;SDS011;39608;55.630;37.864;2022-08-19T16:47:51;13.10;;;2.30;;
53714;SDS011;39608;55.630;37.864;2022-08-19T16:52:55;7.63;;;3.10;;
53714;SDS011;39608;55.630;37.864;2022-08-19T16:57:58;10.70;;;3.03;;
53714;SDS011;39608;55.630;37.864;2022-08-19T17:03:04;7.07;;;2.80;;
53714;SDS011;39608;55.630;37.864;2022-08-19T17:08:10;12.40;;;2.92;;
53714;SDS011;39608;55.630;37.864;2022-08-19T17:13:13;6.32;;;2.58;;
53714;SDS011;39608;55.630;37.864;2022-08-19T17:18:16;4.20;;;2.45;;
53714;SDS011;39608;55.630;37.864;2022-08-19T17:23:20;12.75;;;2.47;;
53714;SDS011;39608;55.630;37.864;2022-08-19T17:28:25;11.50;;;2.47;;
53714;SDS011;39608;55.630;37.864;2022-08-19T17:33:28;7.85;;;2.88;;
53714;SDS011;39608;55.630;37.864;2022-08-19T17:38:32;12.07;;;3.28;;
53714;SDS011;39608;55.630;37.864;2022-08-19T17:43:36;9.00;;;2.53;;
53714;SDS011;39608;55.630;37.864;2022-08-19T17:48:38;7.05;;;2.50;;
53714;SDS011;39608;55.630;37.864;2022-08-19T17:53:43;13.65;;;2.75;;
53714;SDS011;39608;55.630;37.864;2022-08-19T17:58:45;11.25;;;2.40;;
53714;SDS011;39608;55.630;37.864;2022-08-19T18:03:48;13.27;;;2.60;;
53714;SDS011;39608;55.630;37.864;2022-08-19T18:08:53;14.55;;;2.70;;
53714;SDS011;39608;55.630;37.864;2022-08-19T18:13:56;7.13;;;2.22;;
53714;SDS011;39608;55.630;37.864;2022-08-19T18:18:58;7.50;;;2.22;;
53714;SDS011;39608;55.630;37.864;2022-08-19T18:24:02;10.75;;;2.70;;
53714;SDS011;39608;55.630;37.864;2022-08-19T18:29:12;8.98;;;2.20;;
53714;SDS011;39608;55.630;37.864;2022-08-19T18:34:15;5.57;;;2.58;;
53714;SDS011;39608;55.630;37.864;2022-08-19T18:39:20;3.80;;;2.15;;
53714;SDS011;39608;55.630;37.864;2022-08-19T18:44:40;5.18;;;2.33;;
53714;SDS011;39608;55.630;37.864;2022-08-19T18:49:59;9.18;;;2.90;;
53714;SDS011;39608;55.630;37.864;2022-08-19T18:55:09;3.38;;;2.15;;
53714;SDS011;39608;55.630;37.864;2022-08-19T19:00:11;8.90;;;2.28;;
53714;SDS011;39608;55.630;37.864;2022-08-19T19:05:14;4.38;;;2.22;;
53714;SDS011;39608;55.630;37.864;2022-08-19T19:10:18;8.95;;;2.33;;
53714;SDS011;39608;55.630;37.864;2022-08-19T19:15:20;8.90;;;2.25;;
53714;SDS011;39608;55.630;37.864;2022-08-19T19:20:22;8.10;;;2.67;;
53714;SDS011;39608;55.630;37.864;2022-08-19T19:25:33;7.28;;;1.80;;
53714;SDS011;39608;55.630;37.864;2022-08-19T19:30:36;5.22;;;2.08;;
53714;SDS011;39608;55.630;37.864;2022-08-19T19:35:38;7.63;;;1.90;;
53714;SDS011;39608;55.630;37.864;2022-08-19T19:40:44;4.80;;;1.60;;
53714;SDS011;39608;55.630;37.864;2022-08-19T19:45:46;5.40;;;1.70;;
53714;SDS011;39608;55.630;37.864;2022-08-19T19:50:49;5.15;;;1.60;;
53714;SDS011;39608;55.630;37.864;2022-08-19T19:55:53;7.35;;;1.67;;
53714;SDS011;39608;55.630;37.864;2022-08-19T20:00:58;8.75;;;1.80;;
53714;SDS011;39608;55.630;37.864;2022-08-19T20:06:01;6.82;;;2.20;;
53714;SDS011;39608;55.630;37.864;2022-08-19T20:11:05;6.22;;;1.70;;
53714;SDS011;39608;55.630;37.864;2022-08-19T20:16:08;4.22;;;1.58;;
53714;SDS011;39608;55.630;37.864;2022-08-19T20:21:10;10.85;;;1.88;;
53714;SDS011;39608;55.630;37.864;2022-08-19T20:26:14;8.23;;;1.90;;
53714;SDS011;39608;55.630;37.864;2022-08-19T20:31:20;7.95;;;2.00;;
53714;SDS011;39608;55.630;37.864;2022-08-19T20:36:22;7.60;;;1.85;;
53714;SDS011;39608;55.630;37.864;2022-08-19T20:41:28;4.68;;;1.60;;
53714;SDS011;39608;55.630;37.864;2022-08-19T20:46:31;3.60;;;1.67;;
53714;SDS011;39608;55.630;37.864;2022-08-19T20:51:33;12.93;;;1.38;;
53714;SDS011;39608;55.630;37.864;2022-08-19T20:56:37;8.65;;;1.55;;
53714;SDS011;39608;55.630;37.864;2022-08-19T21:01:39;6.32;;;2.30;;
53714;SDS011;39608;55.630;37.864;2022-08-19T21:06:43;6.60;;;1.75;;
53714;SDS011;39608;55.630;37.864;2022-08-19T21:11:47;9.25;;;2.00;;
53714;SDS011;39608;55.630;37.864;2022-08-19T21:16:49;5.72;;;1.77;;
53714;SDS011;39608;55.630;37.864;2022-08-19T21:21:51;7.57;;;1.63;;
53714;SDS011;39608;55.630;37.864;2022-08-19T21:26:55;8.35;;;1.55;;
53714;SDS011;39608;55.630;37.864;2022-08-19T21:31:57;4.65;;;1.70;;
53714;SDS011;39608;55.630;37.864;2022-08-19T21:36:59;6.50;;;1.83;;
53714;SDS011;39608;55.630;37.864;2022-08-19T21:42:03;7.35;;;1.83;;
53714;SDS011;39608;55.630;37.864;2022-08-19T21:47:05;5.75;;;1.70;;
53714;SDS011;39608;55.630;37.864;2022-08-19T21:52:07;9.68;;;1.88;;
53714;SDS011;39608;55.630;37.864;2022-08-19T21:57:19;14.32;;;2.25;;
53714;SDS011;39608;55.630;37.864;2022-08-19T22:02:24;6.57;;;2.00;;
53714;SDS011;39608;55.630;37.864;2022-08-19T22:07:27;6.82;;;2.28;;
53714;SDS011;39608;55.630;37.864;2022-08-19T22:12:31;5.03;;;2.17;;
53714;SDS011;39608;55.630;37.864;2022-08-19T22:17:35;3.63;;;2.03;;
53714;SDS011;39608;55.630;37.864;2022-08-19T22:22:43;8.02;;;2.00;;
53714;SDS011;39608;55.630;37.864;2022-08-19T22:27:49;22.52;;;4.13;;
53714;SDS011;39608;55.630;37.864;2022-08-19T22:32:53;14.48;;;2.97;;
53714;SDS011;39608;55.630;37.864;2022-08-19T22:37:59;12.70;;;4.10;;
53714;SDS011;39608;55.630;37.864;2022-08-19T22:43:05;8.95;;;4.60;;
53714;SDS011;39608;55.630;37.864;2022-08-19T22:48:09;11.35;;;5.28;;
53714;SDS011;39608;55.630;37.864;2022-08-19T22:53:13;17.08;;;6.85;;
53714;SDS011;39608;55.630;37.864;2022-08-19T22:58:17;15.63;;;8.02;;
53714;SDS011;39608;55.630;37.864;2022-08-19T23:03:19;25.13;;;8.75;;
53714;SDS011;39608;55.630;37.864;2022-08-19T23:08:21;17.48;;;8.65;;
53714;SDS011;39608;55.630;37.864;2022-08-19T23:13:25;21.90;;;10.00;;
53714;SDS011;39608;55.630;37.864;2022-08-19T23:18:28;24.80;;;10.95;;
53714;SDS011;39608;55.630;37.864;2022-08-19T23:23:30;22.02;;;10.90;;
53714;SDS011;39608;55.630;37.864;2022-08-19T23:28:34;29.45;;;12.20;;
53714;SDS011;39608;55.630;37.864;2022-08-19T23:33:53;28.23;;;12.82;;
53714;SDS011;39608;55.630;37.864;2022-08-19T23:38:56;22.05;;;13.05;;
53714;SDS011;39608;55.630;37.864;2022-08-19T23:44:01;25.23;;;12.23;;
53714;SDS011;39608;55.630;37.864;2022-08-19T23:49:04;33.97;;;13.55;;
53714;SDS011;39608;55.630;37.864;2022-08-19T23:54:06;22.30;;;15.10;;
53714;SDS011;39608;55.630;37.864;2022-08-19T23:59:11;21.63;;;14.68;;
